sensor_id;sensor_type;location;lat;lon;timestamp;P1;durP1;ratioP1;P2;durP2;ratioP2
29958;SDS011;16815;51.100;6.516;2023-05-07T00:01:40;6.20;;;5.40;;
29958;SDS011;16815;51.100;6.516;2023-05-07T00:04:06;5.80;;;5.20;;
29958;SDS011;16815;51.100;6.516;2023-05-07T00:06:33;7.97;;;5.67;;
29958;SDS011;16815;51.100;6.516;2023-05-07T00:08:59;6.93;;;5.73;;
29958;SDS011;16815;51.100;6.516;2023-05-07T00:11:26;5.57;;;4.97;;
29958;SDS011;16815;51.100;6.516;2023-05-07T00:13:52;6.13;;;5.20;;
29958;SDS011;16815;51.100;6.516;2023-05-07T00:16:17;6.50;;;4.63;;
29958;SDS011;16815;51.100;6.516;2023-05-07T00:18:43;6.97;;;4.70;;
29958;SDS011;16815;51.100;6.516;2023-05-07T00:21:10;5.87;;;4.63;;
29958;SDS011;16815;51.100;6.516;2023-05-07T00:23:36;4.80;;;3.87;;
29958;SDS011;16815;51.100;6.516;2023-05-07T00:26:02;6.87;;;4.80;;
29958;SDS011;16815;51.100;6.516;2023-05-07T00:28:28;5.93;;;5.27;;
29958;SDS011;16815;51.100;6.516;2023-05-07T00:30:54;6.13;;;5.20;;
29958;SDS011;16815;51.100;6.516;2023-05-07T00:33:20;6.03;;;4.73;;
29958;SDS011;16815;51.100;6.516;2023-05-07T00:35:47;5.57;;;5.00;;
29958;SDS011;16815;51.100;6.516;2023-05-07T00:38:13;6.80;;;4.83;;
29958;SDS011;16815;51.100;6.516;2023-05-07T00:40:39;4.63;;;4.17;;
29958;SDS011;16815;51.100;6.516;2023-05-07T00:43:05;4.50;;;3.97;;
29958;SDS011;16815;51.100;6.516;2023-05-07T00:45:31;6.47;;;4.60;;
29958;SDS011;16815;51.100;6.516;2023-05-07T00:47:58;5.33;;;4.40;;
29958;SDS011;16815;51.100;6.516;2023-05-07T00:50:25;6.73;;;4.20;;
29958;SDS011;16815;51.100;6.516;2023-05-07T00:52:51;4.57;;;3.80;;
29958;SDS011;16815;51.100;6.516;2023-05-07T00:55:17;5.23;;;3.83;;
29958;SDS011;16815;51.100;6.516;2023-05-07T00:57:43;4.23;;;3.70;;
29958;SDS011;16815;51.100;6.516;2023-05-07T01:00:10;3.87;;;3.07;;
29958;SDS011;16815;51.100;6.516;2023-05-07T01:02:37;3.27;;;2.97;;
29958;SDS011;16815;51.100;6.516;2023-05-07T01:05:04;3.50;;;3.13;;
29958;SDS011;16815;51.100;6.516;2023-05-07T01:07:31;3.50;;;3.10;;
29958;SDS011;16815;51.100;6.516;2023-05-07T01:09:58;3.83;;;3.50;;
29958;SDS011;16815;51.100;6.516;2023-05-07T01:12:24;5.10;;;3.93;;
29958;SDS011;16815;51.100;6.516;2023-05-07T01:14:51;5.10;;;3.80;;
29958;SDS011;16815;51.100;6.516;2023-05-07T01:17:17;4.60;;;4.20;;
29958;SDS011;16815;51.100;6.516;2023-05-07T01:19:43;4.70;;;4.10;;
29958;SDS011;16815;51.100;6.516;2023-05-07T01:22:10;5.70;;;4.47;;
29958;SDS011;16815;51.100;6.516;2023-05-07T01:24:36;5.07;;;4.60;;
29958;SDS011;16815;51.100;6.516;2023-05-07T01:27:03;5.20;;;4.63;;
29958;SDS011;16815;51.100;6.516;2023-05-07T01:29:29;5.17;;;4.17;;
29958;SDS011;16815;51.100;6.516;2023-05-07T01:31:59;5.47;;;4.70;;
29958;SDS011;16815;51.100;6.516;2023-05-07T01:34:25;4.63;;;4.23;;
29958;SDS011;16815;51.100;6.516;2023-05-07T01:36:53;4.47;;;4.07;;
29958;SDS011;16815;51.100;6.516;2023-05-07T01:39:20;4.93;;;4.40;;
29958;SDS011;16815;51.100;6.516;2023-05-07T01:41:46;4.73;;;3.70;;
29958;SDS011;16815;51.100;6.516;2023-05-07T01:44:12;6.57;;;4.80;;
29958;SDS011;16815;51.100;6.516;2023-05-07T01:46:39;6.43;;;3.77;;
29958;SDS011;16815;51.100;6.516;2023-05-07T01:49:05;5.13;;;4.27;;
29958;SDS011;16815;51.100;6.516;2023-05-07T01:51:31;5.30;;;4.30;;
29958;SDS011;16815;51.100;6.516;2023-05-07T01:53:57;4.40;;;4.00;;
29958;SDS011;16815;51.100;6.516;2023-05-07T01:56:23;4.33;;;3.90;;
29958;SDS011;16815;51.100;6.516;2023-05-07T01:58:49;5.50;;;4.40;;
29958;SDS011;16815;51.100;6.516;2023-05-07T02:01:16;4.30;;;3.73;;
29958;SDS011;16815;51.100;6.516;2023-05-07T02:03:43;4.80;;;4.33;;
29958;SDS011;16815;51.100;6.516;2023-05-07T02:06:09;4.57;;;3.93;;
29958;SDS011;16815;51.100;6.516;2023-05-07T02:08:35;4.50;;;3.77;;
29958;SDS011;16815;51.100;6.516;2023-05-07T02:11:01;4.70;;;4.23;;
29958;SDS011;16815;51.100;6.516;2023-05-07T02:13:29;4.73;;;4.17;;
29958;SDS011;16815;51.100;6.516;2023-05-07T02:15:55;4.63;;;4.13;;
29958;SDS011;16815;51.100;6.516;2023-05-07T02:18:21;5.27;;;4.00;;
29958;SDS011;16815;51.100;6.516;2023-05-07T02:20:47;4.03;;;3.63;;
29958;SDS011;16815;51.100;6.516;2023-05-07T02:23:13;4.23;;;3.83;;
29958;SDS011;16815;51.100;6.516;2023-05-07T02:25:39;3.90;;;3.57;;
29958;SDS011;16815;51.100;6.516;2023-05-07T02:28:05;4.20;;;3.03;;
29958;SDS011;16815;51.100;6.516;2023-05-07T02:30:31;4.57;;;3.90;;
29958;SDS011;16815;51.100;6.516;2023-05-07T02:32:57;3.83;;;3.53;;
29958;SDS011;16815;51.100;6.516;2023-05-07T02:35:24;5.20;;;3.90;;
29958;SDS011;16815;51.100;6.516;2023-05-07T02:37:50;4.13;;;3.23;;
29958;SDS011;16815;51.100;6.516;2023-05-07T02:40:16;4.17;;;3.50;;
29958;SDS011;16815;51.100;6.516;2023-05-07T02:42:42;3.93;;;3.53;;
29958;SDS011;16815;51.100;6.516;2023-05-07T02:45:08;4.87;;;4.23;;
29958;SDS011;16815;51.100;6.516;2023-05-07T02:47:34;4.80;;;4.27;;
29958;SDS011;16815;51.100;6.516;2023-05-07T02:50:00;4.10;;;3.70;;
29958;SDS011;16815;51.100;6.516;2023-05-07T02:52:26;4.77;;;4.37;;
29958;SDS011;16815;51.100;6.516;2023-05-07T02:54:52;4.57;;;4.17;;
29958;SDS011;16815;51.100;6.516;2023-05-07T02:57:18;4.90;;;4.50;;
29958;SDS011;16815;51.100;6.516;2023-05-07T02:59:44;5.67;;;4.70;;
29958;SDS011;16815;51.100;6.516;2023-05-07T03:02:10;5.30;;;4.80;;
29958;SDS011;16815;51.100;6.516;2023-05-07T03:04:36;4.53;;;4.20;;
29958;SDS011;16815;51.100;6.516;2023-05-07T03:07:02;4.97;;;4.50;;
29958;SDS011;16815;51.100;6.516;2023-05-07T03:09:28;4.87;;;4.37;;
29958;SDS011;16815;51.100;6.516;2023-05-07T03:11:53;4.80;;;4.40;;
29958;SDS011;16815;51.100;6.516;2023-05-07T03:14:19;4.20;;;3.90;;
29958;SDS011;16815;51.100;6.516;2023-05-07T03:16:45;4.77;;;4.27;;
29958;SDS011;16815;51.100;6.516;2023-05-07T03:19:11;4.87;;;4.37;;
29958;SDS011;16815;51.100;6.516;2023-05-07T03:21:37;4.50;;;4.10;;
29958;SDS011;16815;51.100;6.516;2023-05-07T03:24:03;4.70;;;4.30;;
29958;SDS011;16815;51.100;6.516;2023-05-07T03:26:29;5.83;;;4.37;;
29958;SDS011;16815;51.100;6.516;2023-05-07T03:28:55;4.80;;;4.13;;
29958;SDS011;16815;51.100;6.516;2023-05-07T03:31:21;4.50;;;4.10;;
29958;SDS011;16815;51.100;6.516;2023-05-07T03:33:51;4.87;;;4.27;;
29958;SDS011;16815;51.100;6.516;2023-05-07T03:36:17;4.50;;;3.93;;
29958;SDS011;16815;51.100;6.516;2023-05-07T03:38:43;5.13;;;4.50;;
29958;SDS011;16815;51.100;6.516;2023-05-07T03:41:09;4.40;;;4.00;;
29958;SDS011;16815;51.100;6.516;2023-05-07T03:43:35;5.00;;;4.50;;
29958;SDS011;16815;51.100;6.516;2023-05-07T03:46:01;5.60;;;4.80;;
29958;SDS011;16815;51.100;6.516;2023-05-07T03:48:27;4.77;;;4.23;;
29958;SDS011;16815;51.100;6.516;2023-05-07T03:50:52;4.90;;;4.50;;
29958;SDS011;16815;51.100;6.516;2023-05-07T03:53:18;5.47;;;4.33;;
29958;SDS011;16815;51.100;6.516;2023-05-07T03:55:44;5.27;;;4.77;;
29958;SDS011;16815;51.100;6.516;2023-05-07T03:58:10;5.40;;;4.90;;
29958;SDS011;16815;51.100;6.516;2023-05-07T04:00:36;5.33;;;4.83;;
29958;SDS011;16815;51.100;6.516;2023-05-07T04:03:04;4.70;;;4.30;;
29958;SDS011;16815;51.100;6.516;2023-05-07T04:05:30;5.40;;;4.93;;
29958;SDS011;16815;51.100;6.516;2023-05-07T04:07:59;4.80;;;4.40;;
29958;SDS011;16815;51.100;6.516;2023-05-07T04:10:26;5.60;;;4.53;;
29958;SDS011;16815;51.100;6.516;2023-05-07T04:12:53;4.60;;;4.20;;
29958;SDS011;16815;51.100;6.516;2023-05-07T04:15:19;4.83;;;4.43;;
29958;SDS011;16815;51.100;6.516;2023-05-07T04:17:45;6.30;;;5.20;;
29958;SDS011;16815;51.100;6.516;2023-05-07T04:20:13;5.67;;;4.50;;
29958;SDS011;16815;51.100;6.516;2023-05-07T04:22:40;5.00;;;4.50;;
29958;SDS011;16815;51.100;6.516;2023-05-07T04:25:06;5.33;;;4.67;;
29958;SDS011;16815;51.100;6.516;2023-05-07T04:27:34;5.00;;;4.50;;
29958;SDS011;16815;51.100;6.516;2023-05-07T04:29:59;5.00;;;4.50;;
29958;SDS011;16815;51.100;6.516;2023-05-07T04:32:26;4.73;;;4.33;;
29958;SDS011;16815;51.100;6.516;2023-05-07T04:34:54;5.37;;;4.70;;
29958;SDS011;16815;51.100;6.516;2023-05-07T04:37:20;5.07;;;4.30;;
29958;SDS011;16815;51.100;6.516;2023-05-07T04:39:46;5.77;;;5.00;;
29958;SDS011;16815;51.100;6.516;2023-05-07T04:42:15;6.17;;;4.47;;
29958;SDS011;16815;51.100;6.516;2023-05-07T04:44:41;7.77;;;4.40;;
29958;SDS011;16815;51.100;6.516;2023-05-07T04:47:07;6.80;;;5.10;;
29958;SDS011;16815;51.100;6.516;2023-05-07T04:49:33;5.77;;;4.70;;
29958;SDS011;16815;51.100;6.516;2023-05-07T04:51:59;4.90;;;4.40;;
29958;SDS011;16815;51.100;6.516;2023-05-07T04:54:25;5.23;;;4.67;;
29958;SDS011;16815;51.100;6.516;2023-05-07T04:56:51;4.27;;;3.77;;
29958;SDS011;16815;51.100;6.516;2023-05-07T04:59:17;6.17;;;4.70;;
29958;SDS011;16815;51.100;6.516;2023-05-07T05:01:43;4.77;;;4.07;;
29958;SDS011;16815;51.100;6.516;2023-05-07T05:04:10;4.93;;;4.53;;
29958;SDS011;16815;51.100;6.516;2023-05-07T05:06:36;4.60;;;4.20;;
29958;SDS011;16815;51.100;6.516;2023-05-07T05:09:02;5.33;;;4.30;;
29958;SDS011;16815;51.100;6.516;2023-05-07T05:11:29;4.73;;;4.13;;
29958;SDS011;16815;51.100;6.516;2023-05-07T05:13:55;4.33;;;3.93;;
29958;SDS011;16815;51.100;6.516;2023-05-07T05:16:21;7.23;;;4.70;;
29958;SDS011;16815;51.100;6.516;2023-05-07T05:18:47;4.37;;;3.97;;
29958;SDS011;16815;51.100;6.516;2023-05-07T05:21:13;4.80;;;4.30;;
29958;SDS011;16815;51.100;6.516;2023-05-07T05:23:39;5.00;;;4.27;;
29958;SDS011;16815;51.100;6.516;2023-05-07T05:26:05;6.17;;;4.20;;
29958;SDS011;16815;51.100;6.516;2023-05-07T05:28:31;5.07;;;3.97;;
29958;SDS011;16815;51.100;6.516;2023-05-07T05:30:57;5.70;;;4.13;;
29958;SDS011;16815;51.100;6.516;2023-05-07T05:33:23;5.17;;;3.80;;
29958;SDS011;16815;51.100;6.516;2023-05-07T05:35:49;5.17;;;3.80;;
29958;SDS011;16815;51.100;6.516;2023-05-07T05:38:15;4.70;;;3.90;;
29958;SDS011;16815;51.100;6.516;2023-05-07T05:40:41;4.60;;;4.10;;
29958;SDS011;16815;51.100;6.516;2023-05-07T05:43:07;5.27;;;3.97;;
29958;SDS011;16815;51.100;6.516;2023-05-07T05:45:33;4.10;;;3.63;;
29958;SDS011;16815;51.100;6.516;2023-05-07T05:48:00;3.77;;;3.47;;
29958;SDS011;16815;51.100;6.516;2023-05-07T05:50:26;4.23;;;3.80;;
29958;SDS011;16815;51.100;6.516;2023-05-07T05:52:52;3.90;;;3.60;;
29958;SDS011;16815;51.100;6.516;2023-05-07T05:55:18;4.30;;;3.07;;
29958;SDS011;16815;51.100;6.516;2023-05-07T05:57:44;4.87;;;3.57;;
29958;SDS011;16815;51.100;6.516;2023-05-07T06:00:10;4.00;;;3.30;;
29958;SDS011;16815;51.100;6.516;2023-05-07T06:02:36;4.70;;;3.47;;
29958;SDS011;16815;51.100;6.516;2023-05-07T06:05:02;5.97;;;2.93;;
29958;SDS011;16815;51.100;6.516;2023-05-07T06:07:28;4.37;;;3.70;;
29958;SDS011;16815;51.100;6.516;2023-05-07T06:09:54;2.97;;;2.77;;
29958;SDS011;16815;51.100;6.516;2023-05-07T06:12:20;3.53;;;3.23;;
29958;SDS011;16815;51.100;6.516;2023-05-07T06:14:46;4.53;;;3.30;;
29958;SDS011;16815;51.100;6.516;2023-05-07T06:17:12;3.73;;;3.10;;
29958;SDS011;16815;51.100;6.516;2023-05-07T06:19:38;4.17;;;3.10;;
29958;SDS011;16815;51.100;6.516;2023-05-07T06:22:04;5.00;;;2.97;;
29958;SDS011;16815;51.100;6.516;2023-05-07T06:24:30;3.13;;;2.83;;
29958;SDS011;16815;51.100;6.516;2023-05-07T06:26:56;4.50;;;3.03;;
29958;SDS011;16815;51.100;6.516;2023-05-07T06:29:23;3.10;;;2.70;;
29958;SDS011;16815;51.100;6.516;2023-05-07T06:31:50;3.53;;;2.70;;
29958;SDS011;16815;51.100;6.516;2023-05-07T06:34:16;3.37;;;2.77;;
29958;SDS011;16815;51.100;6.516;2023-05-07T06:36:42;4.23;;;3.13;;
29958;SDS011;16815;51.100;6.516;2023-05-07T06:39:08;3.63;;;3.00;;
29958;SDS011;16815;51.100;6.516;2023-05-07T06:41:34;3.97;;;3.03;;
29958;SDS011;16815;51.100;6.516;2023-05-07T06:44:01;3.13;;;2.80;;
29958;SDS011;16815;51.100;6.516;2023-05-07T06:46:27;15.00;;;2.97;;
29958;SDS011;16815;51.100;6.516;2023-05-07T06:48:53;3.73;;;2.70;;
29958;SDS011;16815;51.100;6.516;2023-05-07T06:51:19;3.03;;;2.43;;
29958;SDS011;16815;51.100;6.516;2023-05-07T06:53:45;3.57;;;2.70;;
29958;SDS011;16815;51.100;6.516;2023-05-07T06:56:11;3.40;;;2.77;;
29958;SDS011;16815;51.100;6.516;2023-05-07T06:58:37;2.77;;;2.57;;
29958;SDS011;16815;51.100;6.516;2023-05-07T07:01:03;2.80;;;2.30;;
29958;SDS011;16815;51.100;6.516;2023-05-07T07:03:29;2.80;;;2.50;;
29958;SDS011;16815;51.100;6.516;2023-05-07T07:05:55;3.43;;;2.37;;
29958;SDS011;16815;51.100;6.516;2023-05-07T07:08:21;3.03;;;2.40;;
29958;SDS011;16815;51.100;6.516;2023-05-07T07:10:48;3.77;;;2.50;;
29958;SDS011;16815;51.100;6.516;2023-05-07T07:13:14;3.60;;;2.17;;
29958;SDS011;16815;51.100;6.516;2023-05-07T07:15:40;2.67;;;2.37;;
29958;SDS011;16815;51.100;6.516;2023-05-07T07:18:06;3.13;;;2.70;;
29958;SDS011;16815;51.100;6.516;2023-05-07T07:20:32;4.07;;;2.93;;
29958;SDS011;16815;51.100;6.516;2023-05-07T07:22:58;2.93;;;2.43;;
29958;SDS011;16815;51.100;6.516;2023-05-07T07:25:24;2.50;;;2.30;;
29958;SDS011;16815;51.100;6.516;2023-05-07T07:27:51;2.60;;;2.40;;
29958;SDS011;16815;51.100;6.516;2023-05-07T07:30:17;2.30;;;2.10;;
29958;SDS011;16815;51.100;6.516;2023-05-07T07:32:43;2.83;;;2.07;;
29958;SDS011;16815;51.100;6.516;2023-05-07T07:35:09;3.10;;;2.30;;
29958;SDS011;16815;51.100;6.516;2023-05-07T07:37:35;3.57;;;2.07;;
29958;SDS011;16815;51.100;6.516;2023-05-07T07:40:01;2.88;;;2.10;;
29958;SDS011;16815;51.100;6.516;2023-05-07T07:42:28;3.57;;;2.50;;
29958;SDS011;16815;51.100;6.516;2023-05-07T07:44:54;2.80;;;2.40;;
29958;SDS011;16815;51.100;6.516;2023-05-07T07:47:22;5.10;;;2.30;;
29958;SDS011;16815;51.100;6.516;2023-05-07T07:49:47;3.43;;;2.37;;
29958;SDS011;16815;51.100;6.516;2023-05-07T07:52:13;2.70;;;2.20;;
29958;SDS011;16815;51.100;6.516;2023-05-07T07:54:39;4.00;;;2.47;;
29958;SDS011;16815;51.100;6.516;2023-05-07T07:57:05;2.87;;;2.07;;
29958;SDS011;16815;51.100;6.516;2023-05-07T07:59:31;3.22;;;2.28;;
29958;SDS011;16815;51.100;6.516;2023-05-07T08:01:57;3.17;;;2.23;;
29958;SDS011;16815;51.100;6.516;2023-05-07T08:04:23;2.90;;;2.23;;
29958;SDS011;16815;51.100;6.516;2023-05-07T08:06:49;3.13;;;2.50;;
29958;SDS011;16815;51.100;6.516;2023-05-07T08:09:15;3.03;;;2.00;;
29958;SDS011;16815;51.100;6.516;2023-05-07T08:11:41;2.45;;;2.25;;
29958;SDS011;16815;51.100;6.516;2023-05-07T08:14:07;2.28;;;2.13;;
29958;SDS011;16815;51.100;6.516;2023-05-07T08:16:33;2.25;;;2.05;;
29958;SDS011;16815;51.100;6.516;2023-05-07T08:18:59;3.50;;;2.00;;
29958;SDS011;16815;51.100;6.516;2023-05-07T08:21:25;2.97;;;2.10;;
29958;SDS011;16815;51.100;6.516;2023-05-07T08:23:51;4.03;;;1.73;;
29958;SDS011;16815;51.100;6.516;2023-05-07T08:26:17;2.78;;;2.00;;
29958;SDS011;16815;51.100;6.516;2023-05-07T08:28:43;3.20;;;2.00;;
29958;SDS011;16815;51.100;6.516;2023-05-07T08:31:09;2.05;;;1.73;;
29958;SDS011;16815;51.100;6.516;2023-05-07T08:33:34;2.88;;;1.60;;
29958;SDS011;16815;51.100;6.516;2023-05-07T08:36:00;5.85;;;2.00;;
29958;SDS011;16815;51.100;6.516;2023-05-07T08:38:26;3.95;;;1.83;;
29958;SDS011;16815;51.100;6.516;2023-05-07T08:40:52;1.70;;;1.60;;
29958;SDS011;16815;51.100;6.516;2023-05-07T08:43:18;2.28;;;2.08;;
29958;SDS011;16815;51.100;6.516;2023-05-07T08:45:45;2.63;;;1.70;;
29958;SDS011;16815;51.100;6.516;2023-05-07T08:48:14;3.42;;;1.90;;
29958;SDS011;16815;51.100;6.516;2023-05-07T08:50:40;2.95;;;1.60;;
29958;SDS011;16815;51.100;6.516;2023-05-07T08:53:06;3.55;;;1.73;;
29958;SDS011;16815;51.100;6.516;2023-05-07T08:55:32;2.83;;;1.90;;
29958;SDS011;16815;51.100;6.516;2023-05-07T08:57:59;2.13;;;1.92;;
29958;SDS011;16815;51.100;6.516;2023-05-07T09:00:25;3.10;;;2.13;;
29958;SDS011;16815;51.100;6.516;2023-05-07T09:02:51;2.22;;;1.70;;
29958;SDS011;16815;51.100;6.516;2023-05-07T09:05:18;2.03;;;1.80;;
29958;SDS011;16815;51.100;6.516;2023-05-07T09:07:44;2.33;;;1.77;;
29958;SDS011;16815;51.100;6.516;2023-05-07T09:10:10;2.13;;;1.70;;
29958;SDS011;16815;51.100;6.516;2023-05-07T09:12:36;2.63;;;2.10;;
29958;SDS011;16815;51.100;6.516;2023-05-07T09:15:04;1.98;;;1.75;;
29958;SDS011;16815;51.100;6.516;2023-05-07T09:17:30;2.20;;;1.70;;
29958;SDS011;16815;51.100;6.516;2023-05-07T09:19:56;3.28;;;2.42;;
29958;SDS011;16815;51.100;6.516;2023-05-07T09:22:28;2.50;;;2.15;;
29958;SDS011;16815;51.100;6.516;2023-05-07T09:24:56;2.47;;;1.90;;
29958;SDS011;16815;51.100;6.516;2023-05-07T09:27:22;1.60;;;1.30;;
29958;SDS011;16815;51.100;6.516;2023-05-07T09:29:48;1.55;;;1.30;;
29958;SDS011;16815;51.100;6.516;2023-05-07T09:32:14;2.55;;;1.50;;
29958;SDS011;16815;51.100;6.516;2023-05-07T09:34:41;2.13;;;1.80;;
29958;SDS011;16815;51.100;6.516;2023-05-07T09:37:07;1.98;;;1.60;;
29958;SDS011;16815;51.100;6.516;2023-05-07T09:42:05;1.60;;;1.50;;
29958;SDS011;16815;51.100;6.516;2023-05-07T09:44:32;1.98;;;1.70;;
29958;SDS011;16815;51.100;6.516;2023-05-07T09:46:58;2.22;;;1.80;;
29958;SDS011;16815;51.100;6.516;2023-05-07T09:49:25;3.10;;;1.48;;
29958;SDS011;16815;51.100;6.516;2023-05-07T09:51:55;2.22;;;1.20;;
29958;SDS011;16815;51.100;6.516;2023-05-07T09:54:21;1.50;;;1.10;;
29958;SDS011;16815;51.100;6.516;2023-05-07T09:56:51;1.95;;;1.40;;
29958;SDS011;16815;51.100;6.516;2023-05-07T09:59:18;1.73;;;1.27;;
29958;SDS011;16815;51.100;6.516;2023-05-07T10:01:44;1.73;;;1.20;;
29958;SDS011;16815;51.100;6.516;2023-05-07T10:04:10;1.95;;;1.25;;
29958;SDS011;16815;51.100;6.516;2023-05-07T10:06:37;2.30;;;1.38;;
29958;SDS011;16815;51.100;6.516;2023-05-07T10:09:03;1.88;;;1.63;;
29958;SDS011;16815;51.100;6.516;2023-05-07T10:11:32;3.50;;;1.65;;
29958;SDS011;16815;51.100;6.516;2023-05-07T10:13:59;2.88;;;1.63;;
29958;SDS011;16815;51.100;6.516;2023-05-07T10:16:27;2.25;;;1.42;;
29958;SDS011;16815;51.100;6.516;2023-05-07T10:18:53;3.22;;;1.48;;
29958;SDS011;16815;51.100;6.516;2023-05-07T10:21:21;2.22;;;1.40;;
29958;SDS011;16815;51.100;6.516;2023-05-07T10:23:51;1.77;;;1.20;;
29958;SDS011;16815;51.100;6.516;2023-05-07T10:26:20;1.80;;;1.17;;
29958;SDS011;16815;51.100;6.516;2023-05-07T10:28:47;3.60;;;1.40;;
29958;SDS011;16815;51.100;6.516;2023-05-07T10:31:16;3.00;;;1.50;;
29958;SDS011;16815;51.100;6.516;2023-05-07T10:33:45;4.03;;;1.65;;
29958;SDS011;16815;51.100;6.516;2023-05-07T10:36:12;4.32;;;1.48;;
29958;SDS011;16815;51.100;6.516;2023-05-07T10:38:38;2.78;;;1.52;;
29958;SDS011;16815;51.100;6.516;2023-05-07T10:41:05;2.30;;;1.25;;
29958;SDS011;16815;51.100;6.516;2023-05-07T10:43:38;1.63;;;1.20;;
29958;SDS011;16815;51.100;6.516;2023-05-07T10:46:13;1.02;;;0.73;;
29958;SDS011;16815;51.100;6.516;2023-05-07T10:51:24;2.38;;;1.30;;
29958;SDS011;16815;51.100;6.516;2023-05-07T10:54:17;5.03;;;2.05;;
29958;SDS011;16815;51.100;6.516;2023-05-07T10:56:36;2.35;;;1.10;;
29958;SDS011;16815;51.100;6.516;2023-05-07T11:01:56;9.65;;;3.53;;
29958;SDS011;16815;51.100;6.516;2023-05-07T11:04:27;4.35;;;2.58;;
29958;SDS011;16815;51.100;6.516;2023-05-07T11:15:06;1.65;;;1.27;;
29958;SDS011;16815;51.100;6.516;2023-05-07T11:17:32;1.73;;;1.17;;
29958;SDS011;16815;51.100;6.516;2023-05-07T11:20:00;2.15;;;1.42;;
29958;SDS011;16815;51.100;6.516;2023-05-07T11:25:04;1.63;;;0.98;;
29958;SDS011;16815;51.100;6.516;2023-05-07T11:27:30;1.10;;;1.00;;
29958;SDS011;16815;51.100;6.516;2023-05-07T11:29:56;3.58;;;1.50;;
29958;SDS011;16815;51.100;6.516;2023-05-07T11:32:23;4.93;;;1.65;;
29958;SDS011;16815;51.100;6.516;2023-05-07T11:34:52;0.85;;;0.85;;
29958;SDS011;16815;51.100;6.516;2023-05-07T11:37:19;1.40;;;0.95;;
29958;SDS011;16815;51.100;6.516;2023-05-07T11:39:45;1.10;;;1.00;;
29958;SDS011;16815;51.100;6.516;2023-05-07T11:42:30;1.95;;;0.90;;
29958;SDS011;16815;51.100;6.516;2023-05-07T11:44:56;1.27;;;0.90;;
29958;SDS011;16815;51.100;6.516;2023-05-07T11:47:22;1.70;;;0.90;;
29958;SDS011;16815;51.100;6.516;2023-05-07T11:49:51;0.95;;;0.90;;
29958;SDS011;16815;51.100;6.516;2023-05-07T11:52:18;1.92;;;1.00;;
29958;SDS011;16815;51.100;6.516;2023-05-07T11:54:50;1.88;;;1.05;;
29958;SDS011;16815;51.100;6.516;2023-05-07T11:57:17;1.58;;;1.10;;
29958;SDS011;16815;51.100;6.516;2023-05-07T11:59:43;2.38;;;1.30;;
29958;SDS011;16815;51.100;6.516;2023-05-07T12:02:09;1.85;;;1.10;;
29958;SDS011;16815;51.100;6.516;2023-05-07T12:04:35;1.95;;;0.88;;
29958;SDS011;16815;51.100;6.516;2023-05-07T12:07:03;1.20;;;1.10;;
29958;SDS011;16815;51.100;6.516;2023-05-07T12:09:29;2.08;;;1.10;;
29958;SDS011;16815;51.100;6.516;2023-05-07T12:11:55;1.45;;;1.20;;
29958;SDS011;16815;51.100;6.516;2023-05-07T12:14:21;2.13;;;1.40;;
29958;SDS011;16815;51.100;6.516;2023-05-07T12:16:47;2.17;;;1.50;;
29958;SDS011;16815;51.100;6.516;2023-05-07T12:19:13;1.75;;;1.30;;
29958;SDS011;16815;51.100;6.516;2023-05-07T12:21:40;2.10;;;1.52;;
29958;SDS011;16815;51.100;6.516;2023-05-07T12:24:06;3.08;;;1.50;;
29958;SDS011;16815;51.100;6.516;2023-05-07T12:26:37;2.35;;;1.58;;
29958;SDS011;16815;51.100;6.516;2023-05-07T12:29:03;3.42;;;1.20;;
29958;SDS011;16815;51.100;6.516;2023-05-07T12:31:29;1.95;;;1.25;;
29958;SDS011;16815;51.100;6.516;2023-05-07T12:33:55;1.30;;;1.20;;
29958;SDS011;16815;51.100;6.516;2023-05-07T12:36:21;1.50;;;1.23;;
29958;SDS011;16815;51.100;6.516;2023-05-07T12:38:49;1.52;;;1.40;;
29958;SDS011;16815;51.100;6.516;2023-05-07T12:41:15;1.50;;;1.40;;
29958;SDS011;16815;51.100;6.516;2023-05-07T12:43:44;1.70;;;1.20;;
29958;SDS011;16815;51.100;6.516;2023-05-07T12:46:11;1.35;;;1.25;;
29958;SDS011;16815;51.100;6.516;2023-05-07T12:48:45;2.17;;;1.40;;
29958;SDS011;16815;51.100;6.516;2023-05-07T12:51:11;1.63;;;1.45;;
29958;SDS011;16815;51.100;6.516;2023-05-07T12:53:40;2.38;;;1.10;;
29958;SDS011;16815;51.100;6.516;2023-05-07T12:56:09;1.73;;;1.33;;
29958;SDS011;16815;51.100;6.516;2023-05-07T12:58:35;3.05;;;1.58;;
29958;SDS011;16815;51.100;6.516;2023-05-07T13:01:05;2.30;;;1.25;;
29958;SDS011;16815;51.100;6.516;2023-05-07T13:03:32;2.85;;;1.42;;
29958;SDS011;16815;51.100;6.516;2023-05-07T13:05:58;1.95;;;1.40;;
29958;SDS011;16815;51.100;6.516;2023-05-07T13:10:51;1.90;;;1.52;;
29958;SDS011;16815;51.100;6.516;2023-05-07T13:13:18;1.60;;;1.50;;
29958;SDS011;16815;51.100;6.516;2023-05-07T13:15:44;1.30;;;1.23;;
29958;SDS011;16815;51.100;6.516;2023-05-07T13:18:10;1.80;;;1.48;;
29958;SDS011;16815;51.100;6.516;2023-05-07T13:20:36;1.35;;;1.25;;
29958;SDS011;16815;51.100;6.516;2023-05-07T13:23:02;1.70;;;1.60;;
29958;SDS011;16815;51.100;6.516;2023-05-07T13:25:29;1.48;;;1.30;;
29958;SDS011;16815;51.100;6.516;2023-05-07T13:27:56;1.55;;;1.45;;
29958;SDS011;16815;51.100;6.516;2023-05-07T13:30:22;1.73;;;1.50;;
29958;SDS011;16815;51.100;6.516;2023-05-07T13:32:48;1.52;;;1.20;;
29958;SDS011;16815;51.100;6.516;2023-05-07T13:35:15;2.00;;;1.40;;
29958;SDS011;16815;51.100;6.516;2023-05-07T13:37:41;2.13;;;1.40;;
29958;SDS011;16815;51.100;6.516;2023-05-07T13:40:07;4.07;;;1.20;;
29958;SDS011;16815;51.100;6.516;2023-05-07T13:42:33;2.03;;;1.70;;
29958;SDS011;16815;51.100;6.516;2023-05-07T13:44:59;3.85;;;1.70;;
29958;SDS011;16815;51.100;6.516;2023-05-07T13:47:25;13.20;;;2.20;;
29958;SDS011;16815;51.100;6.516;2023-05-07T13:49:51;15.13;;;2.22;;
29958;SDS011;16815;51.100;6.516;2023-05-07T13:52:17;21.00;;;2.35;;
29958;SDS011;16815;51.100;6.516;2023-05-07T13:54:43;23.80;;;2.20;;
29958;SDS011;16815;51.100;6.516;2023-05-07T13:57:10;23.35;;;2.40;;
29958;SDS011;16815;51.100;6.516;2023-05-07T13:59:35;16.38;;;2.28;;
29958;SDS011;16815;51.100;6.516;2023-05-07T14:02:01;7.28;;;1.90;;
29958;SDS011;16815;51.100;6.516;2023-05-07T14:04:27;2.22;;;1.55;;
29958;SDS011;16815;51.100;6.516;2023-05-07T14:06:53;2.00;;;1.33;;
29958;SDS011;16815;51.100;6.516;2023-05-07T14:09:20;2.80;;;1.25;;
29958;SDS011;16815;51.100;6.516;2023-05-07T14:11:45;1.52;;;1.27;;
29958;SDS011;16815;51.100;6.516;2023-05-07T14:14:16;2.63;;;1.60;;
29958;SDS011;16815;51.100;6.516;2023-05-07T14:16:41;1.98;;;1.27;;
29958;SDS011;16815;51.100;6.516;2023-05-07T14:19:07;2.20;;;1.23;;
29958;SDS011;16815;51.100;6.516;2023-05-07T14:21:33;1.75;;;1.20;;
29958;SDS011;16815;51.100;6.516;2023-05-07T14:23:59;1.93;;;1.10;;
29958;SDS011;16815;51.100;6.516;2023-05-07T14:26:25;1.40;;;1.17;;
29958;SDS011;16815;51.100;6.516;2023-05-07T14:28:52;1.77;;;1.20;;
29958;SDS011;16815;51.100;6.516;2023-05-07T14:31:19;2.70;;;1.70;;
29958;SDS011;16815;51.100;6.516;2023-05-07T14:33:45;2.27;;;1.40;;
29958;SDS011;16815;51.100;6.516;2023-05-07T14:36:11;1.67;;;1.57;;
29958;SDS011;16815;51.100;6.516;2023-05-07T14:38:37;2.60;;;1.77;;
29958;SDS011;16815;51.100;6.516;2023-05-07T14:41:03;2.57;;;1.87;;
29958;SDS011;16815;51.100;6.516;2023-05-07T14:43:29;3.87;;;1.90;;
29958;SDS011;16815;51.100;6.516;2023-05-07T14:45:55;2.50;;;2.30;;
29958;SDS011;16815;51.100;6.516;2023-05-07T14:48:21;3.43;;;2.00;;
29958;SDS011;16815;51.100;6.516;2023-05-07T14:50:47;3.27;;;2.03;;
29958;SDS011;16815;51.100;6.516;2023-05-07T14:53:13;2.20;;;2.00;;
29958;SDS011;16815;51.100;6.516;2023-05-07T14:55:39;2.77;;;2.07;;
29958;SDS011;16815;51.100;6.516;2023-05-07T14:58:05;10.60;;;3.03;;
29958;SDS011;16815;51.100;6.516;2023-05-07T15:00:31;2.53;;;2.27;;
29958;SDS011;16815;51.100;6.516;2023-05-07T15:03:01;2.90;;;2.50;;
29958;SDS011;16815;51.100;6.516;2023-05-07T15:05:28;4.00;;;2.27;;